createdAt,value
2023-05-03T00:00:08.799Z,102000.88
2023-05-03T00:02:57.644Z,102000.94
2023-05-03T00:05:26.551Z,101999.72
2023-05-03T00:07:54.731Z,102007.91
2023-05-03T00:10:23.155Z,102003.23
2023-05-03T00:12:51.540Z,101998.80
2023-05-03T00:15:19.702Z,102000.25
2023-05-03T00:17:48.017Z,102001.06
2023-05-03T00:20:16.262Z,102003.23
2023-05-03T00:22:44.599Z,102002.68
2023-05-03T00:25:12.948Z,102003.38
2023-05-03T00:27:41.182Z,102005.88
2023-05-03T00:30:10.604Z,102004.52
2023-05-03T00:32:38.909Z,102000.91
2023-05-03T00:35:07.649Z,102006.09
2023-05-03T00:37:37.294Z,102008.45
2023-05-03T00:40:07.556Z,102010.42
2023-05-03T00:42:37.124Z,102013.34
2023-05-03T00:45:06.929Z,102015.92
2023-05-03T00:47:36.865Z,102017.34
2023-05-03T00:50:06.610Z,102015.87
2023-05-03T00:52:35.053Z,102010.37
2023-05-03T00:55:03.526Z,102006.36
2023-05-03T00:57:31.855Z,102004.02
2023-05-03T01:00:00.809Z,102001.66
2023-05-03T01:02:29.565Z,102000.53
2023-05-03T01:04:57.888Z,102002.82
2023-05-03T01:07:44.309Z,101998.05
2023-05-03T01:10:23.731Z,101994.58
2023-05-03T01:13:26.393Z,101988.56
2023-05-03T01:16:07.221Z,101985.30
2023-05-03T01:18:40.014Z,101985.57
2023-05-03T01:21:09.771Z,101983.13
2023-05-03T01:23:46.556Z,101979.33
2023-05-03T01:26:16.702Z,101978.69
2023-05-03T01:28:44.978Z,101978.91
2023-05-03T01:31:28.963Z,101976.79
2023-05-03T01:34:15.765Z,101970.17
2023-05-03T01:36:44.982Z,101966.00
2023-05-03T01:39:19.146Z,101966.08
2023-05-03T01:41:50.712Z,101962.65
2023-05-03T01:44:19.967Z,101960.95
2023-05-03T01:46:48.253Z,101958.11
2023-05-03T01:49:16.778Z,101960.26
2023-05-03T01:51:44.959Z,101960.05
2023-05-03T01:54:13.182Z,101958.20
2023-05-03T01:56:41.393Z,101954.52
2023-05-03T01:59:09.579Z,101954.05
2023-05-03T02:01:37.840Z,101955.02
2023-05-03T02:04:06.142Z,101957.57
2023-05-03T02:06:34.400Z,101960.23
2023-05-03T02:09:02.559Z,101958.02
2023-05-03T02:11:30.825Z,101953.13
2023-05-03T02:13:59.031Z,101951.86
2023-05-03T02:16:27.858Z,101954.05
2023-05-03T02:18:59.682Z,101954.77
2023-05-03T02:21:28.050Z,101955.73
2023-05-03T02:23:56.345Z,101955.43
2023-05-03T02:26:24.560Z,101956.07
2023-05-03T02:28:52.971Z,101953.53
2023-05-03T02:31:21.255Z,101951.44
2023-05-03T02:33:49.419Z,101949.91
2023-05-03T02:36:17.616Z,101950.08
2023-05-03T02:38:45.909Z,101947.08
2023-05-03T02:41:14.465Z,101942.65
2023-05-03T02:43:42.658Z,101941.66
2023-05-03T02:46:11.018Z,101943.23
2023-05-03T02:48:39.324Z,101946.75
2023-05-03T02:51:07.707Z,101950.15
2023-05-03T02:53:36.116Z,101949.45
2023-05-03T02:56:04.392Z,101955.19
2023-05-03T02:58:32.561Z,101957.34
2023-05-03T03:01:00.747Z,101956.98
2023-05-03T03:03:28.971Z,101961.23
2023-05-03T03:05:57.255Z,101963.64
2023-05-03T03:08:25.565Z,101963.64
2023-05-03T03:10:53.918Z,101963.56
2023-05-03T03:13:22.159Z,101969.20
2023-05-03T03:15:50.405Z,101975.78
2023-05-03T03:18:19.827Z,101972.34
2023-05-03T03:20:48.184Z,101974.65
2023-05-03T03:23:16.404Z,101980.41
2023-05-03T03:25:44.619Z,101983.85
2023-05-03T03:28:12.849Z,101987.04
2023-05-03T03:30:41.101Z,101987.63
2023-05-03T03:33:09.364Z,101990.92
2023-05-03T03:35:38.289Z,101996.50
2023-05-03T03:38:06.919Z,101999.98
2023-05-03T03:40:35.141Z,102002.20
2023-05-03T03:43:03.609Z,102001.63
2023-05-03T03:45:31.784Z,102006.33
2023-05-03T03:48:00.552Z,102013.17
2023-05-03T03:50:28.823Z,102014.34
2023-05-03T03:52:57.012Z,102012.98
2023-05-03T03:55:25.418Z,102013.04
2023-05-03T03:57:53.558Z,102010.62
2023-05-03T04:00:21.802Z,102015.81
2023-05-03T04:02:50.131Z,102017.46
2023-05-03T04:05:18.669Z,102021.73
2023-05-03T04:07:47.364Z,102024.27
2023-05-03T04:10:15.708Z,102029.13
2023-05-03T04:12:43.883Z,102030.60
2023-05-03T04:15:12.480Z,102027.88
2023-05-03T04:17:40.704Z,102028.59
2023-05-03T04:20:11.739Z,102030.09
2023-05-03T04:22:40.599Z,102035.46
2023-05-03T04:25:14.253Z,102029.46
2023-05-03T04:27:42.778Z,102027.27
2023-05-03T04:30:12.162Z,102027.71
2023-05-03T04:32:40.860Z,102034.71
2023-05-03T04:35:11.048Z,102029.95
2023-05-03T04:37:40.694Z,102035.70
2023-05-03T04:40:10.824Z,102037.39
2023-05-03T04:42:39.566Z,102037.59
2023-05-03T04:45:09.972Z,102038.91
2023-05-03T04:47:38.332Z,102038.54
2023-05-03T04:50:09.152Z,102044.81
2023-05-03T04:52:38.076Z,102051.83
2023-05-03T04:55:06.665Z,102049.36
2023-05-03T04:57:35.328Z,102048.19
2023-05-03T05:00:04.592Z,102049.11
2023-05-03T05:02:33.046Z,102048.63
2023-05-03T05:05:01.256Z,102046.58
2023-05-03T05:07:29.925Z,102050.66
2023-05-03T05:09:58.163Z,102056.05
2023-05-03T05:12:26.824Z,102046.02
2023-05-03T05:14:55.048Z,102046.45
2023-05-03T05:17:23.835Z,102048.67
2023-05-03T05:19:52.336Z,102048.52
2023-05-03T05:22:21.166Z,102046.15
2023-05-03T05:24:49.440Z,102045.92
2023-05-03T05:27:17.684Z,102043.67
2023-05-03T05:29:46.018Z,102042.49
2023-05-03T05:32:14.324Z,102044.51
2023-05-03T05:34:45.600Z,102042.63
2023-05-03T05:37:14.083Z,102041.95
2023-05-03T05:39:42.316Z,102041.05
2023-05-03T05:42:10.780Z,102046.11
2023-05-03T05:44:39.059Z,102044.61
2023-05-03T05:47:08.982Z,102044.83
2023-05-03T05:49:37.265Z,102039.92
2023-05-03T05:52:05.732Z,102037.00
2023-05-03T05:54:34.017Z,102043.64
2023-05-03T05:57:02.758Z,102042.46
2023-05-03T05:59:31.666Z,102040.94
2023-05-03T06:02:00.516Z,102043.83
2023-05-03T06:04:29.177Z,102042.23
2023-05-03T06:06:57.418Z,102044.13
2023-05-03T06:09:25.794Z,102048.04
2023-05-03T06:11:54.100Z,102045.61
2023-05-03T06:14:22.512Z,102040.83
2023-05-03T06:16:51.850Z,102044.39
2023-05-03T06:19:20.067Z,102042.77
2023-05-03T06:21:48.245Z,102042.05
2023-05-03T06:24:21.401Z,102043.96
2023-05-03T06:26:49.988Z,102038.40
2023-05-03T06:29:18.449Z,102037.59
2023-05-03T06:31:46.675Z,102035.92
2023-05-03T06:34:20.263Z,102040.52
2023-05-03T06:36:49.462Z,102040.73
2023-05-03T06:39:18.360Z,102042.45
2023-05-03T06:41:46.640Z,102042.56
2023-05-03T06:44:14.835Z,102046.11
2023-05-03T06:46:43.108Z,102046.15
2023-05-03T06:49:11.337Z,102042.45
2023-05-03T06:51:39.596Z,102043.45
2023-05-03T06:54:09.539Z,102045.65
2023-05-03T06:56:37.744Z,102046.98
2023-05-03T06:59:06.286Z,102050.73
2023-05-03T07:01:35.257Z,102049.41
2023-05-03T07:04:03.662Z,102048.36
2023-05-03T07:06:37.767Z,102047.20
2023-05-03T07:09:12.728Z,102054.23
2023-05-03T07:11:47.438Z,102053.54
2023-05-03T07:14:16.661Z,102058.45
2023-05-03T07:16:44.930Z,102056.67
2023-05-03T07:19:13.160Z,102060.54
2023-05-03T07:21:41.363Z,102060.42
2023-05-03T07:24:12.979Z,102063.79
2023-05-03T07:26:43.657Z,102064.46
2023-05-03T07:29:12.625Z,102062.98
2023-05-03T07:31:40.866Z,102066.31
2023-05-03T07:34:09.036Z,102071.36
2023-05-03T07:36:38.206Z,102070.84
2023-05-03T07:39:06.540Z,102065.76
2023-05-03T07:41:34.732Z,102065.20
2023-05-03T07:44:02.950Z,102064.38
2023-05-03T07:46:35.558Z,102064.80
2023-05-03T07:49:05.391Z,102061.70
2023-05-03T07:51:37.408Z,102062.04
2023-05-03T07:54:06.218Z,102062.11
2023-05-03T07:56:34.534Z,102060.27
2023-05-03T07:59:09.481Z,102067.45
2023-05-03T08:01:38.718Z,102062.32
2023-05-03T08:04:07.233Z,102058.30
2023-05-03T08:06:36.035Z,102059.52
2023-05-03T08:09:07.500Z,102063.33
2023-05-03T08:11:35.864Z,102062.05
2023-05-03T08:14:04.071Z,102063.30
2023-05-03T08:16:32.279Z,102068.70
2023-05-03T08:19:00.615Z,102070.48
2023-05-03T08:21:28.875Z,102065.48
2023-05-03T08:23:57.369Z,102066.35
2023-05-03T08:26:26.223Z,102069.48
2023-05-03T08:28:54.887Z,102069.29
2023-05-03T08:31:23.129Z,102072.20
2023-05-03T08:33:51.925Z,102067.52
2023-05-03T08:36:20.194Z,102069.74
2023-05-03T08:38:48.464Z,102065.77
2023-05-03T08:41:26.312Z,102069.91
2023-05-03T08:43:55.649Z,102066.52
2023-05-03T08:46:26.224Z,102068.70
2023-05-03T08:48:55.340Z,102066.70
2023-05-03T08:51:25.142Z,102070.88
2023-05-03T08:53:53.409Z,102071.16
2023-05-03T08:56:32.612Z,102065.73
2023-05-03T08:59:07.788Z,102067.92
2023-05-03T09:01:37.528Z,102068.72
2023-05-03T09:04:07.185Z,102070.08
2023-05-03T09:06:36.968Z,102070.60
2023-05-03T09:09:09.932Z,102071.23
2023-05-03T09:11:39.261Z,102061.25
2023-05-03T09:14:15.411Z,102057.66
2023-05-03T09:16:45.881Z,102056.57
2023-05-03T09:19:15.989Z,102056.71
2023-05-03T09:21:47.393Z,102058.97
2023-05-03T09:24:18.098Z,102053.70
2023-05-03T09:26:47.628Z,102054.36
2023-05-03T09:29:30.376Z,102056.91
2023-05-03T09:32:01.043Z,102045.77
2023-05-03T09:34:29.553Z,102044.65
2023-05-03T09:36:58.158Z,102049.90
2023-05-03T09:39:26.684Z,102043.10
2023-05-03T09:41:54.982Z,102034.73
2023-05-03T09:44:49.088Z,102033.51
2023-05-03T09:47:18.825Z,102040.10
2023-05-03T09:49:47.217Z,102028.17
2023-05-03T09:52:15.419Z,102026.99
2023-05-03T09:54:44.327Z,102028.14
2023-05-03T09:57:14.958Z,102019.52
2023-05-03T09:59:46.264Z,102020.98
2023-05-03T10:02:15.144Z,102025.31
2023-05-03T10:04:50.115Z,102017.96
2023-05-03T10:07:19.064Z,102017.19
2023-05-03T10:09:48.340Z,102018.75
2023-05-03T10:12:19.260Z,102014.58
2023-05-03T10:14:48.949Z,102012.77
2023-05-03T10:17:45.648Z,102012.67
2023-05-03T10:20:23.224Z,102020.25
2023-05-03T10:23:06.762Z,102016.67
2023-05-03T10:25:37.279Z,102010.63
2023-05-03T10:28:09.721Z,102012.55
2023-05-03T10:30:39.697Z,102008.83
2023-05-03T10:33:13.699Z,102010.91
2023-05-03T10:35:44.131Z,102008.45
2023-05-03T10:38:15.886Z,102014.30
2023-05-03T10:40:44.692Z,102012.50
2023-05-03T10:43:31.214Z,102011.82
2023-05-03T10:46:06.925Z,102011.30
2023-05-03T10:48:35.670Z,102008.31
2023-05-03T10:51:37.506Z,102005.71
2023-05-03T10:54:05.971Z,102006.15
2023-05-03T10:56:34.179Z,102004.41
2023-05-03T10:59:02.825Z,102007.32
2023-05-03T11:01:32.313Z,102004.30
2023-05-03T11:04:21.542Z,102006.23
2023-05-03T11:06:52.238Z,102003.19
2023-05-03T11:09:20.887Z,102005.02
2023-05-03T11:11:49.129Z,102008.04
2023-05-03T11:14:17.313Z,102009.76
2023-05-03T11:16:50.922Z,102011.71
2023-05-03T11:19:19.312Z,102013.92
2023-05-03T11:21:48.486Z,102004.58
2023-05-03T11:24:17.222Z,101999.00
2023-05-03T11:26:45.539Z,101996.40
2023-05-03T11:29:15.121Z,101997.40
2023-05-03T11:31:43.933Z,101991.70
2023-05-03T11:34:13.317Z,101986.93
2023-05-03T11:36:42.818Z,101992.04
2023-05-03T11:39:14.777Z,101987.80
2023-05-03T11:41:43.136Z,101988.04
2023-05-03T11:44:17.225Z,101982.19
2023-05-03T11:46:47.444Z,101980.64
2023-05-03T11:49:20.041Z,101976.45
2023-05-03T11:51:51.705Z,101974.16
2023-05-03T11:54:25.962Z,101973.86
2023-05-03T11:56:59.747Z,101970.39
2023-05-03T11:59:36.141Z,101971.33
2023-05-03T12:02:05.915Z,101971.42
2023-05-03T12:04:35.054Z,101973.52
2023-05-03T12:07:05.176Z,101972.04
2023-05-03T12:09:35.841Z,101966.31
2023-05-03T12:12:05.910Z,101960.10
2023-05-03T12:15:00.268Z,101962.02
2023-05-03T12:17:40.006Z,101961.00
2023-05-03T12:22:58.447Z,101955.19
2023-05-03T12:25:33.018Z,101949.05
2023-05-03T12:30:35.730Z,101941.74
2023-05-03T12:33:05.180Z,101940.83
2023-05-03T12:35:34.534Z,101941.52
2023-05-03T12:38:04.820Z,101941.33
2023-05-03T12:40:35.157Z,101939.40
2023-05-03T12:43:03.790Z,101944.53
2023-05-03T12:45:34.557Z,101936.07
2023-05-03T12:48:03.844Z,101933.95
2023-05-03T12:50:32.976Z,101925.00
2023-05-03T12:53:08.437Z,101921.13
2023-05-03T12:55:43.367Z,101911.44
2023-05-03T12:58:45.359Z,101913.02
2023-05-03T13:03:34.335Z,101910.70
2023-05-03T13:06:13.147Z,101899.69
2023-05-03T13:11:14.089Z,101898.97
2023-05-03T13:13:43.117Z,101892.73
2023-05-03T13:16:11.774Z,101883.62
2023-05-03T13:18:40.041Z,101883.80
2023-05-03T13:21:08.571Z,101885.14
2023-05-03T13:23:36.816Z,101887.50
2023-05-03T13:26:05.396Z,101881.00
2023-05-03T13:28:33.667Z,101874.98
2023-05-03T13:31:02.004Z,101880.33
2023-05-03T13:33:30.202Z,101875.76
2023-05-03T13:35:58.502Z,101873.01
2023-05-03T13:38:27.227Z,101874.95
2023-05-03T13:40:55.460Z,101876.64
2023-05-03T13:43:23.677Z,101872.71
2023-05-03T13:45:53.057Z,101869.33
2023-05-03T13:48:21.833Z,101871.23
2023-05-03T13:50:50.161Z,101868.09
2023-05-03T13:53:18.565Z,101869.50
2023-05-03T13:55:46.773Z,101864.48
2023-05-03T13:58:14.997Z,101861.29
2023-05-03T14:00:43.198Z,101861.77
2023-05-03T14:03:12.317Z,101869.10
2023-05-03T14:05:40.738Z,101863.02
2023-05-03T14:08:09.034Z,101859.88
2023-05-03T14:10:37.448Z,101858.69
2023-05-03T14:13:05.961Z,101858.17
2023-05-03T14:15:39.558Z,101856.95
2023-05-03T14:18:09.002Z,101855.96
2023-05-03T14:20:37.424Z,101858.36
2023-05-03T14:23:05.661Z,101859.42
2023-05-03T14:25:35.039Z,101858.83
2023-05-03T14:28:03.496Z,101859.65
2023-05-03T14:30:32.072Z,101855.59
2023-05-03T14:33:00.606Z,101860.85
2023-05-03T14:35:28.964Z,101861.53
2023-05-03T14:37:57.203Z,101853.62
2023-05-03T14:40:25.640Z,101850.88
2023-05-03T14:42:53.866Z,101853.37
2023-05-03T14:45:22.141Z,101850.24
2023-05-03T14:47:50.368Z,101845.59
2023-05-03T14:50:18.727Z,101844.13
2023-05-03T14:52:46.885Z,101846.52
2023-05-03T14:55:15.418Z,101845.66
2023-05-03T14:57:43.636Z,101839.73
2023-05-03T15:00:14.582Z,101839.38
2023-05-03T15:02:42.920Z,101838.52
2023-05-03T15:05:12.141Z,101838.03
2023-05-03T15:07:40.812Z,101833.77
2023-05-03T15:10:09.260Z,101827.82
2023-05-03T15:12:39.326Z,101826.82
2023-05-03T15:15:09.848Z,101823.69
2023-05-03T15:17:38.185Z,101821.94
2023-05-03T15:20:07.559Z,101819.59
2023-05-03T15:22:36.963Z,101818.78
2023-05-03T15:25:05.999Z,101817.78
2023-05-03T15:27:34.266Z,101819.57
2023-05-03T15:30:03.141Z,101822.27
2023-05-03T15:32:31.645Z,101822.09
2023-05-03T15:35:00.216Z,101821.92
2023-05-03T15:37:37.759Z,101820.66
2023-05-03T15:40:09.531Z,101818.40
2023-05-03T15:42:38.325Z,101822.59
2023-05-03T15:45:08.755Z,101823.08
2023-05-03T15:47:37.423Z,101822.40
2023-05-03T15:50:06.868Z,101820.25
2023-05-03T15:52:35.420Z,101819.41
2023-05-03T15:55:03.744Z,101820.58
2023-05-03T15:57:32.995Z,101820.84
2023-05-03T16:00:02.229Z,101818.92
2023-05-03T16:02:30.879Z,101820.13
2023-05-03T16:04:59.215Z,101813.61
2023-05-03T16:07:27.585Z,101813.33
2023-05-03T16:09:56.118Z,101816.00
2023-05-03T16:12:24.820Z,101824.20
2023-05-03T16:14:53.086Z,101827.10
2023-05-03T16:17:22.225Z,101829.49
2023-05-03T16:19:50.474Z,101828.02
2023-05-03T16:22:18.692Z,101828.68
2023-05-03T16:24:47.497Z,101833.87
2023-05-03T16:27:15.869Z,101835.42
2023-05-03T16:29:44.097Z,101833.11
2023-05-03T16:32:12.505Z,101827.86
2023-05-03T16:34:40.875Z,101827.40
2023-05-03T16:37:09.126Z,101823.17
2023-05-03T16:39:37.815Z,101824.34
2023-05-03T16:42:07.612Z,101824.85
2023-05-03T16:44:37.025Z,101822.45
2023-05-03T16:47:06.136Z,101823.14
2023-05-03T16:49:34.902Z,101823.39
2023-05-03T16:52:03.464Z,101829.52
2023-05-03T16:54:31.694Z,101827.66
2023-05-03T16:56:59.815Z,101825.36
2023-05-03T16:59:29.113Z,101827.24
2023-05-03T17:01:57.377Z,101827.70
2023-05-03T17:04:25.919Z,101830.64
2023-05-03T17:06:54.655Z,101834.84
2023-05-03T17:09:22.966Z,101836.15
2023-05-03T17:11:51.516Z,101830.86
2023-05-03T17:14:21.763Z,101830.34
2023-05-03T17:16:51.362Z,101830.33
2023-05-03T17:19:19.681Z,101831.00
2023-05-03T17:21:47.945Z,101831.61
2023-05-03T17:24:16.177Z,101832.80
2023-05-03T17:26:44.388Z,101836.38
2023-05-03T17:29:13.477Z,101838.67
2023-05-03T17:31:41.766Z,101842.95
2023-05-03T17:34:10.029Z,101847.61
2023-05-03T17:36:38.240Z,101846.10
2023-05-03T17:39:06.506Z,101846.81
2023-05-03T17:41:37.148Z,101855.11
2023-05-03T17:44:05.496Z,101853.44
2023-05-03T17:46:35.434Z,101848.98
2023-05-03T17:49:03.886Z,101850.59
2023-05-03T17:51:32.510Z,101852.87
2023-05-03T17:54:00.878Z,101856.16
2023-05-03T17:56:29.066Z,101851.99
2023-05-03T17:58:57.854Z,101858.05
2023-05-03T18:01:26.270Z,101871.10
2023-05-03T18:03:54.573Z,101884.34
2023-05-03T18:06:22.857Z,101887.90
2023-05-03T18:08:52.006Z,101891.04
2023-05-03T18:11:20.330Z,101895.35
2023-05-03T18:13:48.672Z,101901.81
2023-05-03T18:16:17.246Z,101908.59
2023-05-03T18:18:45.651Z,101915.81
2023-05-03T18:21:13.902Z,101918.91
2023-05-03T18:23:43.164Z,101921.59
2023-05-03T18:26:12.642Z,101924.73
2023-05-03T18:28:40.871Z,101926.57
2023-05-03T18:31:10.538Z,101904.27
2023-05-03T18:33:41.647Z,101933.09
2023-05-03T18:36:11.811Z,101935.86
2023-05-03T18:38:40.104Z,101934.65
2023-05-03T18:41:14.564Z,101932.80
2023-05-03T18:43:44.005Z,101933.23
2023-05-03T18:46:17.410Z,101929.84
2023-05-03T18:48:46.677Z,101926.85
2023-05-03T18:51:15.169Z,101927.30
2023-05-03T18:53:43.771Z,101929.93
2023-05-03T18:56:12.119Z,101933.42
2023-05-03T18:58:40.392Z,101934.77
2023-05-03T19:01:08.720Z,101933.33
2023-05-03T19:03:36.973Z,101934.15
2023-05-03T19:06:07.806Z,101932.62
2023-05-03T19:08:36.146Z,101928.45
2023-05-03T19:11:12.986Z,101924.49
2023-05-03T19:13:46.341Z,101920.06
2023-05-03T19:16:15.838Z,101920.64
2023-05-03T19:18:45.584Z,101922.10
2023-05-03T19:21:17.337Z,101922.56
2023-05-03T19:23:46.186Z,101929.41
2023-05-03T19:26:14.388Z,101936.77
2023-05-03T19:28:43.869Z,101937.04
2023-05-03T19:31:12.176Z,101940.89
2023-05-03T19:33:42.823Z,101940.41
2023-05-03T19:36:15.045Z,101944.77
2023-05-03T19:38:43.686Z,101945.00
2023-05-03T19:41:15.876Z,101946.95
2023-05-03T19:43:44.098Z,101945.58
2023-05-03T19:46:12.666Z,101933.54
2023-05-03T19:48:41.293Z,101933.58
2023-05-03T19:51:16.489Z,101937.16
2023-05-03T19:53:47.218Z,101942.83
2023-05-03T19:56:18.591Z,101945.86
2023-05-03T19:58:46.807Z,101942.29
2023-05-03T20:01:15.076Z,101946.68
2023-05-03T20:03:43.371Z,101947.30
2023-05-03T20:06:11.621Z,101948.02
2023-05-03T20:08:40.066Z,101941.07
2023-05-03T20:11:08.284Z,101947.16
2023-05-03T20:13:37.082Z,101948.66
2023-05-03T20:16:05.724Z,101947.81
2023-05-03T20:18:34.093Z,101951.00
2023-05-03T20:21:03.717Z,101954.83
2023-05-03T20:23:32.373Z,101958.20
2023-05-03T20:26:01.922Z,101955.02
2023-05-03T20:28:32.547Z,101956.98
2023-05-03T20:31:00.910Z,101959.89
2023-05-03T20:33:29.201Z,101965.41
2023-05-03T20:35:57.418Z,101968.73
2023-05-03T20:38:25.619Z,101967.15
2023-05-03T20:40:53.879Z,101967.48
2023-05-03T20:43:22.538Z,101973.60
2023-05-03T20:45:50.931Z,101979.88
2023-05-03T20:48:19.336Z,101975.98
2023-05-03T20:50:47.639Z,101974.98
2023-05-03T20:53:15.984Z,101979.23
2023-05-03T20:55:44.154Z,101975.37
2023-05-03T20:58:12.615Z,101971.75
2023-05-03T21:00:40.835Z,101974.80
2023-05-03T21:03:09.064Z,101972.32
2023-05-03T21:05:37.298Z,101972.04
2023-05-03T21:08:05.862Z,101969.86
2023-05-03T21:10:34.115Z,101969.82
2023-05-03T21:13:02.288Z,101974.12
2023-05-03T21:15:30.561Z,101975.22
2023-05-03T21:17:59.085Z,101972.88
2023-05-03T21:20:27.381Z,101972.38
2023-05-03T21:22:55.532Z,101977.86
2023-05-03T21:25:23.931Z,101983.98
2023-05-03T21:27:52.952Z,101982.48
2023-05-03T21:30:21.254Z,101982.15
2023-05-03T21:32:50.171Z,101982.41
2023-05-03T21:35:19.102Z,101982.61
2023-05-03T21:37:48.286Z,101983.59
2023-05-03T21:40:16.719Z,101985.78
2023-05-03T21:42:44.971Z,101985.56
2023-05-03T21:45:14.556Z,101983.71
2023-05-03T21:47:42.828Z,101982.06
2023-05-03T21:50:11.270Z,101978.70
2023-05-03T21:52:39.530Z,101980.43
2023-05-03T21:55:08.655Z,101979.17
2023-05-03T21:57:37.281Z,101980.35
2023-05-03T22:00:06.790Z,101975.49
2023-05-03T22:02:35.355Z,101966.11
2023-05-03T22:05:03.826Z,101964.80
2023-05-03T22:07:32.081Z,101963.44
2023-05-03T22:10:00.310Z,101969.15
2023-05-03T22:12:28.634Z,101962.49
2023-05-03T22:14:56.854Z,101961.27
2023-05-03T22:17:26.257Z,101959.45
2023-05-03T22:19:54.465Z,101955.75
2023-05-03T22:22:22.674Z,101953.41
2023-05-03T22:24:50.896Z,101953.16
2023-05-03T22:27:19.138Z,101951.81
2023-05-03T22:29:47.388Z,101950.69
2023-05-03T22:32:15.726Z,101947.47
2023-05-03T22:34:45.264Z,101945.30
2023-05-03T22:37:13.518Z,101944.84
2023-05-03T22:39:41.810Z,101941.13
2023-05-03T22:42:10.049Z,101942.44
2023-05-03T22:44:38.277Z,101939.02
2023-05-03T22:47:06.494Z,101937.97
2023-05-03T22:49:34.709Z,101932.48
2023-05-03T22:52:04.356Z,101923.56
2023-05-03T22:54:32.583Z,101917.05
2023-05-03T22:57:00.818Z,101916.41
2023-05-03T22:59:29.064Z,101916.05
2023-05-03T23:01:57.373Z,101918.27
2023-05-03T23:04:25.552Z,101920.70
2023-05-03T23:06:54.008Z,101918.27
2023-05-03T23:09:22.213Z,101917.81
2023-05-03T23:11:50.455Z,101913.47
2023-05-03T23:14:18.625Z,101909.95
2023-05-03T23:16:47.261Z,101910.33
2023-05-03T23:19:15.482Z,101908.08
2023-05-03T23:21:43.712Z,101907.64
2023-05-03T23:24:11.856Z,101911.67
2023-05-03T23:26:40.498Z,101909.41
2023-05-03T23:29:09.681Z,101904.38
2023-05-03T23:31:38.745Z,101905.16
2023-05-03T23:34:08.152Z,101899.03
2023-05-03T23:36:36.394Z,101897.11
2023-05-03T23:39:04.725Z,101890.20
2023-05-03T23:41:34.169Z,101885.30
2023-05-03T23:44:02.447Z,101877.25
2023-05-03T23:46:30.689Z,101875.47
2023-05-03T23:48:58.854Z,101868.13
2023-05-03T23:51:27.060Z,101865.23
2023-05-03T23:53:55.255Z,101867.85
2023-05-03T23:56:23.786Z,101864.95
2023-05-03T23:58:51.994Z,101859.29
